C.kormakitis, Cyprus
Current Conditions -  °F | °C
As of 2:20 PM on Friday 24 Oct 2014 (Local Time) from LCEN Reporting Station
Scattered Clouds Scattered Clouds  
Wind Chill: 82°   Ceiling: Unl
Heat Index: 82°   Visibility: 6mi
Dew Point: 54°   Wind: 15mph
Humidity: 37%   Direction: 200°SSW
Pressure: 29.97"   Gusts: NA
Location:  35.35°N, 32.95°E
Report Text: LCEN 241120Z 20013KT 9999 FEW025CB SCT030 28/12 Q1015 NOSIG
Loading
Personal Weather Stations






























Interactive Weather Map New forecast layout! Learn more

10-Day Weather Forecast

Advertisements
Track Severe Weather on mobile